• Join FlightAware (Why Join?)
  • Login
  • US Flag 
02:19AM EDT


 

Airport Tracker/Info


-or-


 

Live Flight TrackerFlight Track Log ✈ N9029X ✈ 19-Jun-2014 ✈ KSLC - KGCD

Flight Track Log - Related Links

Times and Time Zones

All times are in EDT time to prevent confusion due to time zone crossing. See the N9029X flight status page for this flight to view local times or setup timezone preferences in your user account.

Time Position Orientation Groundspeed Altitude Reporting Facility
EDT Latitude Longitude Course Direction KTS MPH feet Rate Location/Type
11:26AM 42.8122 -115.1522 313° West 117 135 10,600  Level Salt Lake Center
11:27AM 42.8356 -115.1858 313° West 119 137 10,600 -60 Level Salt Lake Center
11:28AM 42.8536 -115.2161 309° West 118 136 10,500 -60 Descending Salt Lake Center
11:29AM 42.8797 -115.2569 311° West 117 135 10,500 -60 Level Salt Lake Center
11:30AM 42.9000 -115.2892 311° West 117 135 10,400 -60 Descending Salt Lake Center
11:31AM 42.9169 -115.3289 300° West 117 135 10,400  Level Salt Lake Center
11:32AM 42.9278 -115.3708 289° West 114 131 10,400  Level Salt Lake Center
11:33AM 42.9458 -115.4072 304° West 113 130 10,500 60 Climbing Salt Lake Center
11:34AM 42.9567 -115.4481 290° West 111 128 10,600  Climbing Salt Lake Center
11:35AM 42.9778 -115.4828 310° West 112 129 10,600  Level Salt Lake Center
11:36AM 42.9981 -115.5175 309° West 113 130 10,600  Level Salt Lake Center
11:37AM 43.0197 -115.5503 312° West 114 131 10,600  Level Salt Lake Center
11:39AM 43.0417 -115.5847 311° West 114 131 10,700  Climbing Salt Lake Center
11:40AM 43.0631 -115.6192 310° West 114 131 10,700  Level Salt Lake Center
11:41AM 43.0869 -115.6506 316° Northwest 116 133 10,700  Level Salt Lake Center
11:42AM 43.1075 -115.6872 308° West 117 135 10,700  Level Salt Lake Center
11:43AM 43.1292 -115.7200 312° West 117 135 10,700  Level Salt Lake Center
11:44AM 43.1511 -115.7531 312° West 115 132 10,700 -60 Level Salt Lake Center
11:45AM 43.1750 -115.7906 311° West 115 132 10,600 -60 Descending Salt Lake Center
11:46AM 43.1969 -115.8214 314° West 116 133 10,600  Level Salt Lake Center
11:47AM 43.2200 -115.8561 312° West 116 133 10,600  Level Salt Lake Center
11:48AM 43.2439 -115.8903 314° West 117 135 10,600  Level Salt Lake Center
11:49AM 43.2658 -115.9264 310° West 117 135 10,600  Level Salt Lake Center
11:50AM 43.2936 -115.9650 315° West 118 136 10,600  Level Salt Lake Center
11:51AM 43.3114 -115.9939 310° West 117 135 10,600  Level Salt Lake Center
11:51AM 43.3161 -116.0008 313° West 117 135 10,600  Level Salt Lake Center
11:52AM 43.3328 -116.0317 307° West 119 137 10,600  Level Salt Lake Center
11:52AM 43.3394 -116.0425 310° West 118 136 10,600  Level Salt Lake Center
11:53AM 43.3542 -116.0681 308° West 119 137 10,600  Level Salt Lake Center
11:54AM 43.3689 -116.1044 299° West 118 136 10,600  Level Salt Lake Center
11:55AM 43.3861 -116.1458 300° West 118 136 10,600  Level Salt Lake Center
11:56AM 43.4028 -116.1856 300° West 118 136 10,600  Level Salt Lake Center
11:57AM 43.4186 -116.2261 298° West 117 135 10,600  Level Salt Lake Center
11:57AM 43.4211 -116.2339 294° West 112 129 10,600  Level Salt Lake Center
11:58AM 43.4364 -116.2644 305° West 114 131 10,600  Level Salt Lake Center
11:59AM 43.4528 -116.3039 300° West 114 131 10,600  Level Salt Lake Center
12:00PM 43.4703 -116.3400 304° West 116 133 10,600  Level Salt Lake Center
12:01PM 43.4886 -116.3814 301° West 114 131 10,600  Level Salt Lake Center
12:02PM 43.5019 -116.4142 299° West 115 132 10,600  Level Salt Lake Center
12:02PM 43.5031 -116.4186 289° West 114 131 10,600  Level Salt Lake Center
12:03PM 43.5172 -116.4589 296° West 115 132 10,600  Level Salt Lake Center
12:04PM 43.5308 -116.4953 297° West 114 131 10,600 -120 Level Salt Lake Center
12:04PM 43.5328 -116.4964 337° Northwest 115 132 10,500 60 Descending Salt Lake Center
12:05PM 43.5492 -116.5331 302° West 113 130 10,700 60 Climbing Salt Lake Center
12:06PM 43.5639 -116.5750 296° West 115 132 10,700 -120 Level Salt Lake Center
12:06PM 43.5667 -116.5800 307° West 114 131 10,600  Descending Salt Lake Center
12:07PM 43.5800 -116.6136 299° West 117 135 10,700  Climbing Salt Lake Center
12:07PM 43.5814 -116.6200 287° West 114 131 10,600  Descending Salt Lake Center
12:08PM 43.5942 -116.6528 298° West 117 135 10,700  Climbing Salt Lake Center
12:09PM 43.5969 -116.6586 303° West 115 132 10,600 -120 Descending Salt Lake Center
12:10PM 43.6128 -116.6975 299° West 115 132 10,600  Level Salt Lake Center
12:11PM 43.6308 -116.7353 303° West 115 132 10,600  Level Salt Lake Center
12:12PM 43.6444 -116.7750 295° West 115 132 10,600  Level Salt Lake Center
12:13PM 43.6628 -116.8214 299° West 115 132 10,600  Level Salt Lake Center
12:14PM 43.6783 -116.8617 298° West 115 132 10,600  Level Salt Lake Center
12:15PM 43.6922 -116.9011 296° West 115 132 10,600  Level Salt Lake Center
12:16PM 43.7061 -116.9414 296° West 116 133 10,600  Level Salt Lake Center
12:17PM 43.7186 -116.9817 293° West 116 133 10,600  Level Salt Lake Center
12:18PM 43.7317 -117.0233 293° West 116 133 10,600 -60 Level Salt Lake Center
12:19PM 43.7458 -117.0708 292° West 115 132 10,500  Descending Salt Lake Center
12:20PM 43.7633 -117.1089 302° West 115 132 10,600  Climbing Salt Lake Center
12:21PM 43.7781 -117.1483 297° West 115 132 10,600  Level Salt Lake Center
12:22PM 43.7975 -117.1836 307° West 115 132 10,600  Level Salt Lake Center
12:23PM 43.8153 -117.2200 304° West 115 132 10,600  Level Salt Lake Center
12:24PM 43.8308 -117.2575 300° West 115 132 10,600  Level Salt Lake Center
12:25PM 43.8508 -117.3017 302° West 112 129 10,600 -60 Level Salt Lake Center
12:26PM 43.8631 -117.3422 293° West 112 129 10,500 -60 Descending Salt Lake Center
12:27PM 43.8778 -117.3811 298° West 113 130 10,500  Level Salt Lake Center
12:28PM 43.8875 -117.4222 288° West 113 130 10,500  Level Salt Lake Center
12:29PM 43.8992 -117.4619 292° West 112 129 10,500  Level Salt Lake Center
12:30PM 43.9069 -117.5022 285° West 110 127 10,500  Level Salt Lake Center
12:31PM 43.9217 -117.5514 293° West 111 128 10,500  Level Salt Lake Center
12:32PM 43.9342 -117.5897 294° West 111 128 10,500  Level Salt Lake Center
12:33PM 43.9461 -117.6297 293° West 111 128 10,500  Level Salt Lake Center
12:34PM 43.9575 -117.6692 292° West 111 128 10,500  Level Salt Lake Center
12:35PM 43.9681 -117.7108 289° West 112 129 10,500  Level Salt Lake Center
12:36PM 43.9792 -117.7517 291° West 112 129 10,600  Climbing Salt Lake Center
12:37PM 43.9922 -117.8008 290° West 112 129 10,500  Descending Salt Lake Center
12:39PM 44.0033 -117.8417 291° West 113 130 10,600  Climbing Salt Lake Center
12:40PM 44.0103 -117.8842 283° West 112 129 10,500 -120 Descending Salt Lake Center
12:41PM 44.0225 -117.9242 293° West 112 129 10,400  Descending Salt Lake Center
12:42PM 44.0367 -117.9639 296° West 113 130 10,500  Climbing Salt Lake Center
12:43PM 44.0531 -118.0103 296° West 113 130 10,500  Level Salt Lake Center
12:44PM 44.0678 -118.0489 298° West 113 130 10,600 60 Climbing Salt Lake Center
12:45PM 44.0819 -118.0881 297° West 113 130 10,700  Climbing Salt Lake Center
12:46PM 44.0958 -118.1278 296° West 113 130 10,700 -60 Level Salt Lake Center
12:47PM 44.1078 -118.1689 292° West 113 130 10,600 -120 Descending Salt Lake Center
12:48PM 44.1200 -118.2092 293° West 113 130 10,500 -60 Descending Salt Lake Center
12:49PM 44.1325 -118.2569 290° West 113 130 10,500  Level Salt Lake Center
12:50PM 44.1439 -118.2989 291° West 113 130 10,600  Climbing Salt Lake Center
12:51PM 44.1536 -118.3386 289° West 112 129 10,500 -60 Descending Salt Lake Center
12:52PM 44.1619 -118.3778 287° West 113 130 10,500 -60 Level Salt Lake Center
12:53PM 44.1703 -118.4283 283° West 113 130 10,400 -180 Descending Salt Lake Center
12:54PM 44.1781 -118.4711 284° West 113 130 10,200 -180 Descending Salt Lake Center
12:55PM 44.1850 -118.5164 282° West 115 132 10,100 -120 Descending Salt Lake Center
12:56PM 44.1881 -118.5619 275° West 115 132 10,000  Descending Salt Lake Center
12:57PM 44.1914 -118.6064 276° West 116 133 10,100 120 Climbing Salt Lake Center
12:58PM 44.1936 -118.6417 275° West 116 133 10,300 60 Climbing Seattle Center
12:59PM 44.1994 -118.6803 282° West 108 124 10,300  Level Seattle Center
01:00PM 44.2100 -118.7208 290° West 108 124 10,300  Level Seattle Center
01:01PM 44.2283 -118.7644 300° West 108 124 10,400  Climbing Seattle Center
01:02PM 44.2469 -118.8000 306° West 109 125 10,400 -180 Level Seattle Center
01:03PM 44.2672 -118.8372 307° West 118 136 10,100 -600 Descending Seattle Center
01:05PM 44.3203 -118.9261 310° West 122 140 8,400 -780 Descending Salt Lake Center
01:06PM 44.3431 -118.9608 313° West 122 140 7,600 -1,020 Descending Salt Lake Center
01:07PM 44.3808 -118.9608 360° North 127 146 6,400 -1,200 Descending Salt Lake Center